Time;durP1;ratioP1;P1;durP2;ratioP2;P2;SDS_P1;SDS_P2;PMS_P1;PMS_P2;Temp;Humidity;BMP_temperature;BMP_pressure;BME280_temperature;BME280_humidity;BME280_pressure;Samples;Min_cycle;Max_cycle;Signal;HPM_P1;HPM_P2
2022/12/22 11:00:31;;;;;;;11.37;6.00;;;9.60;99.90;;;;;;4747581;23;20343;-72
2022/12/22 11:03:00;;;;;;;12.20;5.07;;;9.70;99.90;;;;;;4898963;29;20221;-72
2022/12/22 11:05:28;;;;;;;10.00;5.17;;;9.80;99.90;;;;;;4899467;29;20221;-73
2022/12/22 11:07:55;;;;;;;11.80;5.90;;;9.80;99.90;;;;;;4899111;29;20238;-73
2022/12/22 11:10:31;;;;;;;8.57;5.03;;;10.00;99.90;;;;;;4899122;29;20677;-72
2022/12/22 11:13:09;;;;;;;8.73;4.73;;;10.20;99.90;;;;;;4898980;29;20661;-72
2022/12/22 11:15:48;;;;;;;9.60;4.50;;;10.20;99.90;;;;;;4898749;29;20206;-74
2022/12/22 11:18:33;;;;;;;6.37;3.43;;;10.30;99.90;;;;;;4898956;29;20218;-74
2022/12/22 11:21:04;;;;;;;7.33;3.63;;;10.30;99.90;;;;;;4899073;29;20225;-73
2022/12/22 11:23:36;;;;;;;4.93;3.20;;;10.30;99.90;;;;;;4899056;29;20214;-73
2022/12/22 11:26:15;;;;;;;4.40;2.80;;;10.30;99.90;;;;;;4898926;29;20238;-73
2022/12/22 11:29:15;;;;;;;5.23;3.20;;;10.30;99.90;;;;;;4898619;29;20222;-73
2022/12/22 11:31:55;;;;;;;7.10;2.73;;;10.50;99.90;;;;;;4888266;29;20237;-73
2022/12/22 11:34:37;;;;;;;3.83;2.43;;;10.50;99.90;;;;;;4898788;29;20221;-71
2022/12/22 11:37:14;;;;;;;6.87;1.93;;;10.50;99.90;;;;;;4898718;29;20245;-71
2022/12/22 11:39:46;;;;;;;3.90;1.87;;;10.50;99.90;;;;;;4898836;29;20217;-71
2022/12/22 11:42:31;;;;;;;3.63;2.03;;;10.40;99.90;;;;;;4898607;29;20207;-73
2022/12/22 11:45:08;;;;;;;5.97;1.60;;;10.40;99.90;;;;;;4898773;29;20221;-73
2022/12/22 11:47:47;;;;;;;2.03;1.50;;;10.60;99.90;;;;;;4897281;29;20328;-73
2022/12/22 11:50:29;;;;;;;4.27;1.90;;;10.70;99.90;;;;;;4897723;29;20301;-74
2022/12/22 11:53:22;;;;;;;4.07;1.30;;;10.70;99.90;;;;;;4897613;29;20218;-74
2022/12/22 11:56:06;;;;;;;1.67;1.30;;;10.70;99.90;;;;;;4897097;29;20248;-73
2022/12/22 11:58:48;;;;;;;8.30;1.40;;;10.60;99.90;;;;;;4897312;29;20671;-73
2022/12/22 12:01:34;;;;;;;2.33;1.23;;;10.60;99.90;;;;;;4897791;29;20211;-73
2022/12/22 12:04:29;;;;;;;3.87;1.10;;;10.60;99.90;;;;;;4897855;29;20221;-73
2022/12/22 12:07:17;;;;;;;1.80;1.10;;;10.70;99.90;;;;;;4897312;29;20705;-73
2022/12/22 12:09:52;;;;;;;1.30;1.00;;;10.60;99.90;;;;;;4897203;29;20218;-73
2022/12/22 12:12:26;;;;;;;1.93;1.00;;;10.60;99.90;;;;;;4897561;29;20212;-73
2022/12/22 12:15:00;;;;;;;2.33;0.90;;;10.60;99.90;;;;;;4895042;29;20198;-73
2022/12/22 12:17:42;;;;;;;1.93;1.20;;;10.60;99.90;;;;;;4897275;29;20234;-73
2022/12/22 12:20:38;;;;;;;2.40;1.10;;;10.60;99.90;;;;;;4897249;29;20214;-73
2022/12/22 12:23:19;;;;;;;2.63;0.77;;;10.60;99.90;;;;;;4897253;29;20553;-72
2022/12/22 12:25:54;;;;;;;2.63;0.83;;;10.50;99.90;;;;;;4897183;29;20233;-74
2022/12/22 12:28:28;;;;;;;1.10;0.63;;;10.50;99.90;;;;;;4897001;29;20241;-73
2022/12/22 12:30:57;;;;;;;2.57;0.90;;;10.30;99.90;;;;;;4897465;29;20216;-73
2022/12/22 12:33:36;;;;;;;2.73;1.00;;;10.40;99.90;;;;;;4897432;29;20210;-73
2022/12/22 12:36:11;;;;;;;2.63;1.20;;;10.30;99.90;;;;;;4897544;29;20287;-73
2022/12/22 12:38:46;;;;;;;1.23;0.70;;;10.30;99.90;;;;;;4897299;29;20269;-73
2022/12/22 12:41:22;;;;;;;0.83;0.83;;;10.30;99.90;;;;;;4897557;29;20658;-73
2022/12/22 12:43:52;;;;;;;3.47;0.80;;;10.40;99.90;;;;;;4897434;29;20216;-73
2022/12/22 12:47:04;;;;;;;1.87;0.87;;;10.40;99.90;;;;;;4897204;29;20230;-73
2022/12/22 12:49:52;;;;;;;0.80;0.60;;;10.60;99.90;;;;;;4863809;29;20214;-73
2022/12/22 12:53:13;;;;;;;1.63;0.70;;;10.80;99.90;;;;;;4897573;29;20241;-73
2022/12/22 12:55:57;;;;;;;0.70;0.70;;;10.80;99.90;;;;;;4897265;29;20415;-73
2022/12/22 12:58:51;;;;;;;3.73;0.93;;;10.70;99.90;;;;;;4897268;29;20217;-73
2022/12/22 13:01:55;;;;;;;1.70;0.90;;;10.70;99.90;;;;;;4897400;29;20689;-73
2022/12/22 13:05:02;;;;;;;0.53;0.40;;;10.80;99.90;;;;;;4839720;29;20212;-72
2022/12/22 13:08:10;;;;;;;3.63;0.87;;;10.90;99.90;;;;;;4839168;29;20248;-73
2022/12/22 13:10:40;;;;;;;1.60;0.90;;;11.10;99.90;;;;;;4839796;29;20213;-73
2022/12/22 13:13:11;;;;;;;1.60;0.50;;;11.00;99.90;;;;;;4885129;29;20211;-73
2022/12/22 13:15:40;;;;;;;1.20;0.60;;;10.90;99.90;;;;;;4897367;29;20210;-72
2022/12/22 13:18:31;;;;;;;2.00;0.70;;;10.80;99.90;;;;;;4900030;29;20214;-73
2022/12/22 13:20:59;;;;;;;1.07;0.50;;;10.60;99.90;;;;;;4901079;29;20242;-72
2022/12/22 13:23:34;;;;;;;1.43;0.80;;;10.50;99.90;;;;;;4901373;29;20214;-73
2022/12/22 13:26:07;;;;;;;1.20;0.70;;;10.50;99.90;;;;;;4901082;29;20241;-73
2022/12/22 13:28:37;;;;;;;1.30;0.77;;;10.50;99.90;;;;;;4900717;29;20318;-72
2022/12/22 13:31:13;;;;;;;3.97;0.77;;;10.50;99.90;;;;;;4899835;29;20680;-73
2022/12/22 13:33:43;;;;;;;0.93;0.70;;;10.60;99.90;;;;;;4900783;29;20217;-73
2022/12/22 13:36:17;;;;;;;1.07;0.70;;;10.40;99.90;;;;;;4899808;29;20231;-73
2022/12/22 13:38:45;;;;;;;2.50;0.70;;;10.30;99.90;;;;;;4900327;29;20238;-73
2022/12/22 13:41:16;;;;;;;1.60;0.97;;;10.40;99.90;;;;;;4900025;29;20227;-72
2022/12/22 13:43:46;;;;;;;1.40;1.00;;;10.40;99.90;;;;;;4897921;29;20225;-73
2022/12/22 13:46:13;;;;;;;1.37;0.90;;;10.40;99.90;;;;;;4900195;29;20230;-73
2022/12/22 13:48:42;;;;;;;3.30;1.17;;;10.40;99.90;;;;;;4894531;29;20257;-72
2022/12/22 13:51:14;;;;;;;1.10;1.00;;;10.30;99.90;;;;;;4900287;29;20686;-72
2022/12/22 13:53:43;;;;;;;1.30;1.07;;;10.20;99.90;;;;;;4899396;29;20207;-75
2022/12/22 13:56:16;;;;;;;1.80;1.00;;;10.30;99.90;;;;;;4900717;29;20321;-71
2022/12/22 13:58:45;;;;;;;2.00;1.10;;;10.40;99.90;;;;;;4900218;29;20237;-72
2022/12/22 14:01:17;;;;;;;2.77;1.10;;;10.40;99.90;;;;;;4900175;29;20211;-72
2022/12/22 14:03:50;;;;;;;1.40;1.03;;;10.40;99.90;;;;;;4900140;29;20210;-73
2022/12/22 14:06:35;;;;;;;1.53;1.20;;;10.50;99.90;;;;;;4899918;29;20233;-73
2022/12/22 14:09:13;;;;;;;4.10;1.40;;;10.60;99.90;;;;;;4900263;29;20242;-72
2022/12/22 14:11:43;;;;;;;5.57;1.47;;;10.60;99.90;;;;;;4915922;29;20224;-73
2022/12/22 14:14:14;;;;;;;2.20;1.50;;;10.60;99.90;;;;;;4919090;29;20216;-73
2022/12/22 14:16:43;;;;;;;2.13;1.20;;;10.60;99.90;;;;;;4918405;29;20226;-73
2022/12/22 14:19:13;;;;;;;3.00;1.40;;;10.70;99.90;;;;;;4916011;29;20569;-72
2022/12/22 14:21:40;;;;;;;2.90;1.50;;;10.80;99.90;;;;;;4900519;29;20211;-73
2022/12/22 14:24:09;;;;;;;3.17;1.33;;;10.80;99.90;;;;;;4899629;29;20211;-72
2022/12/22 14:26:37;;;;;;;2.83;1.30;;;10.80;99.90;;;;;;4899708;29;20229;-72
2022/12/22 14:29:13;;;;;;;6.80;1.90;;;10.70;99.90;;;;;;4899168;29;20244;-72
2022/12/22 14:31:51;;;;;;;3.13;1.67;;;10.90;99.90;;;;;;4899671;29;20266;-72
2022/12/22 14:34:29;;;;;;;3.80;1.10;;;10.90;99.90;;;;;;4899671;29;20689;-72
2022/12/22 14:36:56;;;;;;;5.20;1.40;;;10.90;99.90;;;;;;4899965;29;20245;-73
2022/12/22 14:39:25;;;;;;;6.33;1.33;;;10.90;99.90;;;;;;4899892;29;20210;-72
2022/12/22 14:41:54;;;;;;;7.33;1.10;;;10.90;99.90;;;;;;4899557;29;20650;-72
2022/12/22 14:44:25;;;;;;;9.93;1.50;;;10.90;99.90;;;;;;4899788;29;20296;-73
2022/12/22 14:47:16;;;;;;;8.67;1.43;;;10.90;99.90;;;;;;4899542;29;20250;-72
2022/12/22 14:49:47;;;;;;;9.03;1.30;;;11.00;99.90;;;;;;4899352;29;20224;-73
2022/12/22 14:52:34;;;;;;;5.67;1.43;;;11.00;99.90;;;;;;4899214;29;20221;-72
2022/12/22 14:55:03;;;;;;;9.83;1.43;;;11.00;99.90;;;;;;4899358;29;20266;-71
2022/12/22 14:57:34;;;;;;;7.33;1.53;;;11.00;99.90;;;;;;4899172;29;20245;-73
2022/12/22 15:00:09;;;;;;;7.40;1.60;;;11.00;99.90;;;;;;4898486;29;20269;-72
2022/12/22 15:02:40;;;;;;;7.93;1.40;;;11.10;99.90;;;;;;4899304;29;20207;-71
2022/12/22 15:05:24;;;;;;;8.00;1.53;;;11.00;99.90;;;;;;4899482;29;20207;-71
2022/12/22 15:07:53;;;;;;;5.93;1.60;;;11.00;99.90;;;;;;4902403;29;20296;-72
2022/12/22 15:10:20;;;;;;;9.50;1.83;;;11.00;99.90;;;;;;4893458;29;20215;-71
2022/12/22 15:12:50;;;;;;;9.70;1.80;;;11.10;99.90;;;;;;4898341;29;20210;-70
2022/12/22 15:15:20;;;;;;;12.53;1.73;;;11.20;99.90;;;;;;4897920;29;20203;-73
2022/12/22 15:17:48;;;;;;;12.60;2.43;;;11.10;99.90;;;;;;4897301;29;20235;-71
2022/12/22 15:20:18;;;;;;;6.27;1.43;;;11.20;99.90;;;;;;4897538;29;20213;-73
2022/12/22 15:22:45;;;;;;;12.77;2.60;;;11.20;99.90;;;;;;4897299;29;20286;-73
2022/12/22 15:25:14;;;;;;;11.70;2.53;;;11.20;99.90;;;;;;4897108;29;20211;-72
2022/12/22 15:27:40;;;;;;;29.57;2.43;;;11.20;99.90;;;;;;4897576;29;20238;-71
2022/12/22 15:30:08;;;;;;;13.20;2.00;;;11.30;99.90;;;;;;4897430;29;20555;-72
2022/12/22 15:32:37;;;;;;;16.07;2.37;;;11.30;99.90;;;;;;4897213;29;20207;-74
2022/12/22 15:35:16;;;;;;;10.23;1.63;;;11.30;99.90;;;;;;4897356;29;20372;-73
2022/12/22 15:37:42;;;;;;;11.63;1.67;;;11.30;99.90;;;;;;4897476;29;20294;-73
2022/12/22 15:40:17;;;;;;;13.03;2.00;;;11.20;99.90;;;;;;4895721;29;20660;-73
2022/12/22 15:42:44;;;;;;;13.70;2.50;;;11.20;99.90;;;;;;4900853;29;20217;-74
2022/12/22 15:45:12;;;;;;;14.43;1.80;;;11.20;99.90;;;;;;4901917;29;20224;-71
2022/12/22 15:47:41;;;;;;;15.47;2.03;;;11.30;99.90;;;;;;4901543;29;20230;-72
2022/12/22 15:50:15;;;;;;;11.60;1.57;;;11.30;99.90;;;;;;4903465;29;20210;-72
2022/12/22 15:52:45;;;;;;;14.83;2.13;;;11.30;99.90;;;;;;4901895;29;20233;-73
2022/12/22 15:55:14;;;;;;;12.83;2.20;;;11.30;99.90;;;;;;4899721;29;20218;-73
2022/12/22 15:57:41;;;;;;;9.73;2.43;;;11.30;99.90;;;;;;4898203;29;20728;-73
2022/12/22 16:00:10;;;;;;;21.63;3.33;;;11.30;99.90;;;;;;4897993;29;20218;-72
2022/12/22 16:02:37;;;;;;;22.57;5.13;;;11.40;99.90;;;;;;4898082;29;20210;-71
2022/12/22 16:05:06;;;;;;;15.70;2.47;;;11.40;99.90;;;;;;4898324;29;20669;-71
2022/12/22 16:07:34;;;;;;;13.80;2.50;;;11.40;99.90;;;;;;4897785;29;20705;-72
2022/12/22 16:10:01;;;;;;;21.50;3.10;;;11.40;99.90;;;;;;4898017;29;20210;-72
2022/12/22 16:12:31;;;;;;;21.67;3.67;;;11.30;99.90;;;;;;4897928;29;20202;-72
2022/12/22 16:14:59;;;;;;;18.87;3.03;;;11.30;99.90;;;;;;4897994;29;20218;-73
2022/12/22 16:17:28;;;;;;;13.57;2.07;;;11.20;99.90;;;;;;4897713;29;20720;-71
2022/12/22 16:19:55;;;;;;;14.80;2.53;;;11.20;99.90;;;;;;4897568;29;20224;-70
2022/12/22 16:22:30;;;;;;;13.10;2.13;;;11.20;99.90;;;;;;4897698;29;20750;-71
2022/12/22 16:24:57;;;;;;;14.57;2.83;;;11.30;99.90;;;;;;4898081;29;20213;-72
2022/12/22 16:27:24;;;;;;;16.60;1.90;;;11.20;99.90;;;;;;4897921;29;20245;-72
2022/12/22 16:29:54;;;;;;;14.10;2.20;;;11.20;99.90;;;;;;4898125;29;20245;-72
2022/12/22 16:32:25;;;;;;;21.43;2.50;;;11.20;99.90;;;;;;4897850;29;20210;-72
2022/12/22 16:34:52;;;;;;;14.37;2.90;;;11.20;99.90;;;;;;4898115;29;20210;-72
2022/12/22 16:37:18;;;;;;;19.07;3.00;;;11.20;99.90;;;;;;4897495;29;20241;-72
2022/12/22 16:39:47;;;;;;;16.33;3.20;;;11.20;99.90;;;;;;4897382;29;20207;-72
2022/12/22 16:42:15;;;;;;;24.73;3.07;;;11.30;99.90;;;;;;4897158;29;20218;-72
2022/12/22 16:44:43;;;;;;;17.07;2.40;;;11.30;99.90;;;;;;4897596;29;20220;-72
2022/12/22 16:47:16;;;;;;;14.37;2.80;;;11.30;99.90;;;;;;4897608;29;20226;-71
2022/12/22 16:49:44;;;;;;;13.87;2.23;;;11.20;99.90;;;;;;4897781;29;20238;-74
2022/12/22 16:52:18;;;;;;;26.07;3.60;;;11.30;99.90;;;;;;4900478;29;20210;-75
2022/12/22 16:54:45;;;;;;;20.03;3.03;;;11.30;99.90;;;;;;4901538;29;20210;-74
2022/12/22 16:57:13;;;;;;;16.13;2.67;;;11.20;99.90;;;;;;4902057;29;20252;-74
2022/12/22 16:59:40;;;;;;;19.50;2.50;;;11.20;99.90;;;;;;4901290;29;20222;-72
2022/12/22 17:02:19;;;;;;;22.40;3.90;;;11.10;99.90;;;;;;4909417;29;20687;-73
2022/12/22 17:04:46;;;;;;;13.90;2.50;;;11.10;99.90;;;;;;4920027;29;20561;-74
2022/12/22 17:07:14;;;;;;;19.93;2.17;;;11.20;99.90;;;;;;4910214;29;20230;-72
2022/12/22 17:09:45;;;;;;;23.80;2.50;;;11.10;99.90;;;;;;4901252;29;20249;-73
2022/12/22 17:12:18;;;;;;;13.93;3.30;;;11.10;99.90;;;;;;4900961;29;20216;-70
2022/12/22 17:14:45;;;;;;;19.10;2.50;;;11.10;99.90;;;;;;4901432;29;20556;-74
2022/12/22 17:17:15;;;;;;;17.10;2.60;;;11.20;99.90;;;;;;4900757;29;20593;-71
2022/12/22 17:19:42;;;;;;;29.17;2.73;;;11.10;99.90;;;;;;4901192;29;20214;-70
2022/12/22 17:22:20;;;;;;;28.17;3.63;;;11.10;99.90;;;;;;4900737;29;20214;-71
2022/12/22 17:24:47;;;;;;;18.10;2.73;;;11.10;99.90;;;;;;4900311;29;20207;-72
2022/12/22 17:27:15;;;;;;;18.80;3.13;;;11.10;99.90;;;;;;4900995;29;20246;-74
2022/12/22 17:29:43;;;;;;;15.90;2.20;;;11.20;99.90;;;;;;4900061;29;20238;-71
2022/12/22 17:32:12;;;;;;;18.20;2.67;;;11.20;99.90;;;;;;4881773;29;20579;-72
2022/12/22 17:34:39;;;;;;;13.70;2.50;;;11.20;99.90;;;;;;4887599;29;20216;-73
2022/12/22 17:37:12;;;;;;;17.23;2.03;;;11.20;99.90;;;;;;4900642;29;20709;-72
2022/12/22 17:39:39;;;;;;;18.37;2.40;;;11.20;99.90;;;;;;4900950;29;20210;-72
2022/12/22 17:42:16;;;;;;;20.40;2.73;;;11.20;99.90;;;;;;4900893;29;20218;-71
2022/12/22 17:44:44;;;;;;;11.13;2.47;;;11.10;99.90;;;;;;4900753;29;20212;-74
2022/12/22 17:47:14;;;;;;;12.43;2.00;;;11.20;99.90;;;;;;4900578;29;20698;-72
2022/12/22 17:49:41;;;;;;;22.77;3.07;;;11.20;99.90;;;;;;4900664;29;20590;-72
2022/12/22 17:52:16;;;;;;;12.20;2.00;;;11.10;99.90;;;;;;4900847;29;20610;-74
2022/12/22 17:54:43;;;;;;;14.47;2.23;;;11.20;99.90;;;;;;4900729;29;20213;-73
2022/12/22 17:57:16;;;;;;;11.67;2.30;;;11.20;99.90;;;;;;4900254;29;20226;-70
2022/12/22 17:59:44;;;;;;;11.80;2.37;;;11.20;99.90;;;;;;4899839;29;20226;-71
2022/12/22 18:02:17;;;;;;;11.33;2.57;;;11.20;99.90;;;;;;4899626;29;20218;-71
2022/12/22 18:04:43;;;;;;;10.43;1.77;;;11.20;99.90;;;;;;4900168;29;20539;-74
2022/12/22 18:07:11;;;;;;;7.93;2.00;;;11.20;99.90;;;;;;4897438;29;20230;-72
2022/12/22 18:09:38;;;;;;;13.43;2.07;;;11.20;99.90;;;;;;4898418;29;20295;-73
2022/12/22 18:12:15;;;;;;;8.47;2.07;;;11.20;99.90;;;;;;4899164;29;20309;-73
2022/12/22 18:14:43;;;;;;;17.13;2.37;;;11.10;99.90;;;;;;4898702;29;20236;-72
2022/12/22 18:17:21;;;;;;;17.20;2.63;;;11.10;99.90;;;;;;4898882;29;20234;-73
2022/12/22 18:19:48;;;;;;;12.20;1.93;;;11.10;99.90;;;;;;4898884;29;20222;-72
2022/12/22 18:22:18;;;;;;;13.13;1.90;;;11.20;99.90;;;;;;4898384;29;20424;-73
2022/12/22 18:24:44;;;;;;;10.37;2.13;;;11.10;99.90;;;;;;4898725;29;20221;-73
2022/12/22 18:27:12;;;;;;;7.77;1.70;;;11.10;99.90;;;;;;4898838;29;20244;-73
2022/12/22 18:29:39;;;;;;;14.50;2.13;;;11.10;99.90;;;;;;4898231;29;20333;-73
2022/12/22 18:32:08;;;;;;;13.43;2.70;;;11.10;99.90;;;;;;4898953;29;20214;-72
2022/12/22 18:34:35;;;;;;;14.20;2.57;;;11.10;99.90;;;;;;4898851;29;20206;-73
2022/12/22 18:37:02;;;;;;;8.93;2.00;;;11.20;99.90;;;;;;4898057;29;20234;-72
2022/12/22 18:39:30;;;;;;;6.63;1.77;;;11.10;99.90;;;;;;4898409;29;20301;-72
2022/12/22 18:41:57;;;;;;;13.10;2.10;;;11.10;99.90;;;;;;4898761;29;20285;-70
2022/12/22 18:44:24;;;;;;;5.77;1.60;;;11.10;99.90;;;;;;4898320;29;20221;-73
2022/12/22 18:46:51;;;;;;;9.53;2.00;;;11.20;99.90;;;;;;4898552;29;20230;-73
2022/12/22 18:49:19;;;;;;;7.60;1.73;;;11.20;99.90;;;;;;4899871;29;20238;-75
2022/12/22 18:51:46;;;;;;;8.20;1.80;;;11.20;99.90;;;;;;4899271;29;20213;-73
2022/12/22 18:54:24;;;;;;;9.63;1.70;;;11.20;99.90;;;;;;4899754;29;20210;-74
2022/12/22 18:56:51;;;;;;;9.67;2.37;;;11.10;99.90;;;;;;4899766;29;20230;-73
2022/12/22 18:59:23;;;;;;;9.80;1.93;;;11.20;99.90;;;;;;4899618;29;20234;-75
2022/12/22 19:01:51;;;;;;;9.97;2.33;;;11.10;99.90;;;;;;4899464;29;20207;-74
2022/12/22 19:04:19;;;;;;;7.00;1.20;;;11.20;99.90;;;;;;4899300;29;20210;-73
2022/12/22 19:06:45;;;;;;;6.47;1.57;;;11.20;99.90;;;;;;4899580;29;20343;-74
2022/12/22 19:09:15;;;;;;;8.13;1.60;;;11.20;99.90;;;;;;4899620;29;20238;-74
2022/12/22 19:11:42;;;;;;;8.33;1.57;;;11.10;99.90;;;;;;4899340;29;20574;-74
2022/12/22 19:14:17;;;;;;;10.83;1.90;;;11.10;99.90;;;;;;4899400;29;20211;-74
2022/12/22 19:16:44;;;;;;;8.03;1.80;;;11.00;99.90;;;;;;4899054;29;20225;-74
2022/12/22 19:19:17;;;;;;;5.87;1.70;;;11.00;99.90;;;;;;4899383;29;20347;-74
2022/12/22 19:21:45;;;;;;;5.60;1.43;;;11.00;99.90;;;;;;4899344;29;20219;-74
2022/12/22 19:24:12;;;;;;;4.87;1.17;;;11.00;99.90;;;;;;4899214;29;20221;-74
2022/12/22 19:26:40;;;;;;;6.43;1.60;;;11.00;99.90;;;;;;4899299;29;20230;-74
2022/12/22 19:29:08;;;;;;;5.97;1.57;;;11.10;99.90;;;;;;4898838;29;20238;-73
2022/12/22 19:31:37;;;;;;;7.40;1.30;;;11.00;99.90;;;;;;4898772;29;20754;-73
2022/12/22 19:34:07;;;;;;;6.90;1.97;;;11.00;99.90;;;;;;4898907;29;20304;-73
2022/12/22 19:36:34;;;;;;;6.70;1.80;;;11.00;99.90;;;;;;4898904;29;20230;-73
2022/12/22 19:39:02;;;;;;;6.77;1.23;;;10.90;99.90;;;;;;4898772;29;20215;-74
2022/12/22 19:41:36;;;;;;;8.67;1.43;;;11.00;99.90;;;;;;4898921;29;20210;-73
2022/12/22 19:44:04;;;;;;;4.40;1.30;;;11.00;99.90;;;;;;4898925;29;20210;-74
2022/12/22 19:46:33;;;;;;;8.00;1.50;;;11.00;99.90;;;;;;4898769;29;20241;-75
2022/12/22 19:49:01;;;;;;;6.80;1.83;;;11.00;99.90;;;;;;4898846;29;20210;-73
2022/12/22 19:51:30;;;;;;;4.37;1.60;;;11.00;99.90;;;;;;4898590;29;20214;-74
2022/12/22 19:53:57;;;;;;;10.30;1.30;;;11.10;99.90;;;;;;4898488;29;20753;-73
2022/12/22 19:56:28;;;;;;;10.47;2.87;;;11.10;99.90;;;;;;4898498;29;20727;-73
2022/12/22 19:58:56;;;;;;;9.53;2.20;;;11.10;99.90;;;;;;4898577;29;20270;-73
2022/12/22 20:01:23;;;;;;;8.03;2.23;;;11.00;99.90;;;;;;4898579;29;20214;-74
2022/12/22 20:03:50;;;;;;;8.13;2.20;;;10.90;99.90;;;;;;4898420;29;20675;-74
2022/12/22 20:06:17;;;;;;;7.93;2.10;;;10.90;99.90;;;;;;4898404;29;20230;-73
2022/12/22 20:08:44;;;;;;;8.63;2.07;;;10.90;99.90;;;;;;4898132;29;20567;-74
2022/12/22 20:11:13;;;;;;;6.87;1.47;;;10.90;99.90;;;;;;4898673;29;20309;-73
2022/12/22 20:13:42;;;;;;;7.20;1.77;;;10.80;99.90;;;;;;4898444;29;20210;-73
2022/12/22 20:16:12;;;;;;;6.10;1.60;;;10.90;99.90;;;;;;4898249;29;20242;-73
2022/12/22 20:18:39;;;;;;;5.43;1.60;;;10.90;99.90;;;;;;4898195;29;20744;-74
2022/12/22 20:21:10;;;;;;;8.53;2.60;;;10.90;99.90;;;;;;4898160;29;20214;-74
2022/12/22 20:23:38;;;;;;;8.90;1.63;;;10.90;99.90;;;;;;4898524;29;20218;-74
2022/12/22 20:26:06;;;;;;;10.73;4.40;;;10.90;99.90;;;;;;4897877;29;20237;-74
2022/12/22 20:28:36;;;;;;;7.43;3.13;;;11.00;99.90;;;;;;4898220;29;20210;-74
2022/12/22 20:31:05;;;;;;;9.70;2.97;;;11.10;99.90;;;;;;4897854;29;20248;-73
2022/12/22 20:33:33;;;;;;;5.77;1.50;;;11.10;99.90;;;;;;4898105;29;20221;-74
2022/12/22 20:36:02;;;;;;;8.50;1.70;;;11.10;99.90;;;;;;4897905;29;20718;-74
2022/12/22 20:38:33;;;;;;;11.13;2.73;;;11.10;99.90;;;;;;4898252;29;20210;-74
2022/12/22 20:41:00;;;;;;;5.33;1.80;;;11.20;99.90;;;;;;4897899;29;20221;-74
2022/12/22 20:43:29;;;;;;;9.53;2.40;;;11.20;99.90;;;;;;4897884;29;20214;-74
2022/12/22 20:46:00;;;;;;;6.27;2.80;;;11.20;99.90;;;;;;4897760;29;20245;-74
2022/12/22 20:48:33;;;;;;;6.80;1.60;;;11.30;99.90;;;;;;4897681;29;20206;-74
2022/12/22 20:51:00;;;;;;;8.60;2.13;;;11.20;99.90;;;;;;4897982;29;20242;-73
2022/12/22 20:53:27;;;;;;;10.07;2.07;;;11.20;99.90;;;;;;4897849;29;20301;-74
2022/12/22 20:55:55;;;;;;;9.87;2.20;;;11.20;99.90;;;;;;4897823;29;20237;-73
2022/12/22 20:58:23;;;;;;;4.03;1.33;;;11.20;99.90;;;;;;4897891;29;20210;-74
2022/12/22 21:00:51;;;;;;;6.63;1.60;;;11.30;99.90;;;;;;4897567;29;20217;-74
2022/12/22 21:03:18;;;;;;;3.17;1.57;;;11.40;99.90;;;;;;4897998;29;20233;-74
2022/12/22 21:05:47;;;;;;;4.87;1.80;;;11.50;99.90;;;;;;4897753;29;20231;-74
2022/12/22 21:08:17;;;;;;;4.67;1.73;;;11.40;99.90;;;;;;4897967;29;20210;-74
2022/12/22 21:10:45;;;;;;;3.30;1.50;;;11.50;99.90;;;;;;4897932;29;20248;-74
2022/12/22 21:13:12;;;;;;;5.23;1.57;;;11.50;99.90;;;;;;4897748;29;20214;-75
2022/12/22 21:15:40;;;;;;;5.67;1.20;;;11.70;99.90;;;;;;4897545;29;20210;-74
2022/12/22 21:18:15;;;;;;;5.00;1.47;;;11.70;99.90;;;;;;4897659;29;20211;-74
2022/12/22 21:20:43;;;;;;;3.97;1.90;;;11.80;99.90;;;;;;4897927;29;20206;-74
2022/12/22 21:23:12;;;;;;;8.97;1.80;;;11.70;99.90;;;;;;4897823;29;21019;-74
2022/12/22 21:25:41;;;;;;;5.67;2.20;;;11.70;99.90;;;;;;4897631;29;20644;-75
2022/12/22 21:28:09;;;;;;;6.43;2.03;;;11.70;99.90;;;;;;4897501;29;20658;-74
2022/12/22 21:30:36;;;;;;;5.53;1.43;;;11.80;99.90;;;;;;4897757;29;20238;-74
2022/12/22 21:33:02;;;;;;;4.73;1.60;;;11.70;99.90;;;;;;4897686;29;20582;-75
2022/12/22 21:35:34;;;;;;;9.43;3.97;;;11.70;99.90;;;;;;4897514;29;20219;-74
2022/12/22 21:38:01;;;;;;;6.07;2.23;;;11.70;99.90;;;;;;4898277;29;20221;-74
2022/12/22 21:40:31;;;;;;;6.60;2.30;;;11.70;99.90;;;;;;4900949;29;20206;-74
2022/12/22 21:42:59;;;;;;;8.83;2.90;;;11.70;99.90;;;;;;4900945;29;20680;-74
2022/12/22 21:45:28;;;;;;;5.53;2.73;;;11.80;99.90;;;;;;4897606;29;20214;-72
2022/12/22 21:47:59;;;;;;;4.20;1.70;;;11.60;99.90;;;;;;4899666;29;20677;-71
2022/12/22 21:50:28;;;;;;;5.27;1.87;;;11.60;99.90;;;;;;4899763;29;20249;-73
2022/12/22 21:52:55;;;;;;;4.73;1.70;;;11.50;99.90;;;;;;4898810;29;20221;-72
2022/12/22 21:55:26;;;;;;;7.63;2.27;;;11.50;99.90;;;;;;4899671;29;20224;-73
2022/12/22 21:57:54;;;;;;;11.03;3.50;;;11.50;99.90;;;;;;4899510;29;20210;-73
2022/12/22 22:00:22;;;;;;;7.67;2.73;;;11.60;99.90;;;;;;4898711;29;20225;-71
2022/12/22 22:02:50;;;;;;;4.47;1.63;;;11.40;99.90;;;;;;4899543;29;20218;-72
2022/12/22 22:05:27;;;;;;;4.87;1.90;;;11.40;99.90;;;;;;4899152;29;20254;-72
2022/12/22 22:07:55;;;;;;;8.00;1.97;;;11.40;99.90;;;;;;4899323;29;20293;-72
2022/12/22 22:10:24;;;;;;;7.07;1.60;;;11.50;99.90;;;;;;4899426;29;20234;-73
2022/12/22 22:12:51;;;;;;;5.20;2.33;;;11.40;99.90;;;;;;4899132;29;20220;-73
2022/12/22 22:15:21;;;;;;;3.50;1.40;;;11.50;99.90;;;;;;4898466;29;20339;-72
